createdAt,value
2024-02-12T00:01:01.850Z,91.13
2024-02-12T00:01:59.358Z,91.15
2024-02-12T00:02:43.622Z,90.83
2024-02-12T00:03:48.186Z,90.55
2024-02-12T00:04:22.110Z,91.08
2024-02-12T00:05:03.524Z,90.44
2024-02-12T00:05:50.686Z,90.67
2024-02-12T00:06:23.377Z,90.73
2024-02-12T00:07:14.821Z,90.82
2024-02-12T00:08:25.807Z,91.23
2024-02-12T00:09:12.801Z,91.23
2024-02-12T00:10:07.064Z,91.03
2024-02-12T00:10:44.468Z,90.85
2024-02-12T00:12:22.804Z,91.30
2024-02-12T00:12:58.517Z,90.81
2024-02-12T00:14:06.208Z,90.93
2024-02-12T00:14:50.257Z,91.19
2024-02-12T00:15:25.104Z,91.17
2024-02-12T00:16:09.740Z,91.11
2024-02-12T00:16:48.552Z,91.15
2024-02-12T00:17:41.653Z,91.14
2024-02-12T00:18:33.969Z,90.94
2024-02-12T00:19:06.737Z,91.18
2024-02-12T00:19:43.220Z,91.24
2024-02-12T00:20:19.112Z,90.91
2024-02-12T00:20:58.237Z,91.02
2024-02-12T00:21:39.584Z,90.89
2024-02-12T00:22:16.531Z,91.08
2024-02-12T00:23:03.596Z,90.98
2024-02-12T00:23:45.498Z,90.82
2024-02-12T00:24:33.820Z,90.95
2024-02-12T00:25:27.357Z,90.93
2024-02-12T00:26:23.875Z,91.20
2024-02-12T00:27:11.244Z,91.17
2024-02-12T00:27:51.552Z,91.14
2024-02-12T00:28:56.032Z,91.00
2024-02-12T00:30:45.010Z,90.80
2024-02-12T00:31:22.937Z,91.16
2024-02-12T00:32:31.418Z,91.21
2024-02-12T00:33:08.563Z,91.13
2024-02-12T00:34:14.235Z,91.18
2024-02-12T00:35:02.282Z,90.82
2024-02-12T00:35:49.598Z,90.86
2024-02-12T00:36:34.291Z,90.76
2024-02-12T00:37:11.777Z,90.71
2024-02-12T00:38:20.735Z,90.81
2024-02-12T00:38:55.967Z,90.99
2024-02-12T00:39:40.656Z,90.95
2024-02-12T00:40:15.455Z,90.80
2024-02-12T00:40:48.001Z,90.95
2024-02-12T00:41:35.115Z,90.81
2024-02-12T00:42:13.901Z,91.12
2024-02-12T00:43:02.802Z,90.72
2024-02-12T00:43:49.624Z,91.11
2024-02-12T00:44:43.013Z,90.68
2024-02-12T00:45:29.098Z,90.49
2024-02-12T00:46:22.348Z,90.74
2024-02-12T00:48:22.821Z,90.81
2024-02-12T00:49:19.267Z,90.31
2024-02-12T00:49:57.514Z,90.80
2024-02-12T00:50:53.534Z,90.36
2024-02-12T00:51:53.554Z,90.50
2024-02-12T00:52:56.988Z,90.76
2024-02-12T00:53:51.403Z,90.50
2024-02-12T00:54:42.721Z,90.55
2024-02-12T00:55:32.422Z,90.76
2024-02-12T00:56:14.170Z,90.83
2024-02-12T00:57:01.908Z,90.73
2024-02-12T00:57:48.560Z,90.60
2024-02-12T00:58:27.525Z,90.96
2024-02-12T00:59:12.197Z,90.65
2024-02-12T00:59:51.521Z,90.49
2024-02-12T01:00:35.803Z,90.77
2024-02-12T01:01:17.632Z,90.80
2024-02-12T01:02:05.709Z,90.96
2024-02-12T01:03:19.749Z,90.38
2024-02-12T01:04:16.503Z,90.88
2024-02-12T01:04:57.894Z,90.76
2024-02-12T01:05:57.929Z,91.00
2024-02-12T01:06:50.113Z,91.07
2024-02-12T01:07:40.141Z,91.00
2024-02-12T01:08:30.843Z,90.70
2024-02-12T01:09:39.222Z,90.63
2024-02-12T01:10:32.233Z,90.98
2024-02-12T01:11:22.480Z,90.85
2024-02-12T01:12:19.450Z,90.77
2024-02-12T01:12:59.314Z,90.68
2024-02-12T01:13:34.895Z,90.99
2024-02-12T01:14:10.641Z,90.65
2024-02-12T01:15:19.933Z,90.67
2024-02-12T01:16:14.352Z,90.89
2024-02-12T01:16:59.349Z,90.82
2024-02-12T01:17:53.628Z,90.66
2024-02-12T01:18:47.048Z,90.88
2024-02-12T01:19:27.562Z,90.97
2024-02-12T01:20:13.354Z,90.52
2024-02-12T01:22:16.329Z,90.62
2024-02-12T01:22:55.469Z,90.67
2024-02-12T01:23:36.367Z,90.72
2024-02-12T01:24:29.538Z,90.50
2024-02-12T01:25:12.203Z,90.75
2024-02-12T01:25:54.067Z,90.71
2024-02-12T01:26:44.106Z,90.64
2024-02-12T01:27:37.597Z,90.58
2024-02-12T01:28:13.194Z,90.83
2024-02-12T01:29:06.806Z,90.81
2024-02-12T01:29:54.376Z,90.58
2024-02-12T01:30:43.871Z,90.84
2024-02-12T01:31:46.156Z,90.28
2024-02-12T01:32:21.193Z,90.59
2024-02-12T01:33:17.470Z,90.50
2024-02-12T01:34:23.390Z,90.40
2024-02-12T01:35:07.580Z,90.26
2024-02-12T01:35:58.826Z,90.42
2024-02-12T01:36:54.238Z,90.15
2024-02-12T01:37:56.175Z,90.45
2024-02-12T01:38:35.168Z,90.56
2024-02-12T01:39:31.568Z,91.10
2024-02-12T01:40:21.134Z,90.91
2024-02-12T01:41:04.999Z,91.19
2024-02-12T01:41:43.219Z,91.20
2024-02-12T01:42:22.191Z,90.97
2024-02-12T01:43:23.521Z,90.89
2024-02-12T01:44:19.168Z,90.96
2024-02-12T01:45:19.046Z,90.94
2024-02-12T01:46:21.461Z,91.22
2024-02-12T01:47:21.337Z,90.89
2024-02-12T01:48:00.056Z,91.29
2024-02-12T01:48:53.063Z,90.92
2024-02-12T01:49:52.557Z,90.93
2024-02-12T01:50:39.753Z,91.54
2024-02-12T01:51:27.077Z,91.33
2024-02-12T01:52:11.604Z,91.60
2024-02-12T01:53:05.827Z,91.14
2024-02-12T01:53:55.859Z,91.33
2024-02-12T01:54:52.746Z,91.27
2024-02-12T01:56:37.222Z,91.68
2024-02-12T01:57:24.864Z,91.50
2024-02-12T01:58:09.434Z,91.45
2024-02-12T01:59:11.501Z,91.84
2024-02-12T01:59:56.210Z,91.42
2024-02-12T02:00:37.407Z,92.02
2024-02-12T02:01:20.088Z,91.76
2024-02-12T02:01:55.563Z,91.72
2024-02-12T02:02:46.913Z,92.03
2024-02-12T02:03:25.756Z,91.90
2024-02-12T02:04:16.520Z,92.15
2024-02-12T02:05:05.953Z,91.78
2024-02-12T02:05:57.487Z,91.70
2024-02-12T02:07:00.501Z,91.67
2024-02-12T02:07:54.657Z,92.21
2024-02-12T02:08:38.633Z,92.09
2024-02-12T02:09:13.625Z,92.00
2024-02-12T02:09:46.073Z,92.04
2024-02-12T02:10:30.475Z,92.34
2024-02-12T02:11:19.143Z,92.16
2024-02-12T02:12:09.549Z,91.99
2024-02-12T02:12:58.356Z,92.36
2024-02-12T02:13:58.018Z,92.26
2024-02-12T02:14:50.392Z,92.20
2024-02-12T02:15:46.517Z,92.12
2024-02-12T02:16:36.947Z,91.74
2024-02-12T02:17:15.232Z,92.15
2024-02-12T02:17:56.533Z,92.36
2024-02-12T02:18:47.076Z,92.41
2024-02-12T02:19:37.477Z,92.14
2024-02-12T02:20:16.706Z,92.39
2024-02-12T02:20:52.165Z,92.28
2024-02-12T02:21:35.594Z,92.25
2024-02-12T02:22:21.495Z,92.09
2024-02-12T02:23:05.479Z,92.18
2024-02-12T02:24:08.803Z,92.46
2024-02-12T02:24:57.906Z,92.64
2024-02-12T02:25:45.413Z,92.53
2024-02-12T02:26:27.774Z,92.41
2024-02-12T02:27:03.119Z,92.29
2024-02-12T02:27:50.455Z,92.53
2024-02-12T02:28:41.884Z,92.44
2024-02-12T02:29:36.259Z,92.41
2024-02-12T02:30:13.279Z,92.50
2024-02-12T02:30:49.915Z,92.11
2024-02-12T02:31:35.195Z,92.53
2024-02-12T02:33:37.296Z,92.53
2024-02-12T02:35:24.716Z,92.51
2024-02-12T02:36:04.006Z,92.38
2024-02-12T02:36:50.053Z,92.45
2024-02-12T02:37:43.837Z,92.30
2024-02-12T02:38:35.686Z,92.18
2024-02-12T02:39:31.569Z,92.60
2024-02-12T02:40:19.439Z,92.16
2024-02-12T02:41:12.746Z,92.35
2024-02-12T02:42:01.415Z,92.22
2024-02-12T02:42:36.701Z,92.53
2024-02-12T02:43:20.259Z,92.51
2024-02-12T02:43:55.512Z,92.35
2024-02-12T02:44:34.048Z,92.55
2024-02-12T02:45:15.931Z,92.40
2024-02-12T02:46:12.264Z,92.47
2024-02-12T02:46:48.219Z,92.76
2024-02-12T02:47:30.160Z,92.63
2024-02-12T02:48:09.562Z,92.37
2024-02-12T02:48:56.210Z,92.51
2024-02-12T02:49:41.836Z,92.70
2024-02-12T02:50:31.131Z,92.47
2024-02-12T02:51:24.591Z,92.35
2024-02-12T02:52:01.512Z,92.32
2024-02-12T02:52:42.224Z,92.48
2024-02-12T02:53:26.932Z,92.27
2024-02-12T02:54:18.133Z,92.18
2024-02-12T02:55:04.858Z,92.27
2024-02-12T02:56:08.736Z,92.27
2024-02-12T02:56:55.606Z,92.06
2024-02-12T02:59:17.893Z,92.60
2024-02-12T03:01:06.973Z,92.33
2024-02-12T03:01:39.540Z,92.53
2024-02-12T03:02:30.945Z,92.52
2024-02-12T03:03:17.774Z,92.63
2024-02-12T03:04:08.077Z,92.63
2024-02-12T03:04:54.150Z,92.59
2024-02-12T03:05:32.676Z,92.56
2024-02-12T03:06:14.941Z,92.69
2024-02-12T03:06:51.511Z,92.72
2024-02-12T03:07:38.050Z,92.56
2024-02-12T03:08:19.669Z,92.38
2024-02-12T03:09:05.430Z,92.59
2024-02-12T03:09:46.959Z,92.65
2024-02-12T03:10:38.680Z,92.39
2024-02-12T03:11:16.162Z,92.51
2024-02-12T03:12:01.165Z,92.44
2024-02-12T03:12:44.989Z,92.42
2024-02-12T03:13:32.048Z,92.67
2024-02-12T03:14:22.554Z,92.92
2024-02-12T03:15:10.997Z,93.08
2024-02-12T03:16:10.278Z,92.92
2024-02-12T03:17:02.209Z,93.10
2024-02-12T03:18:16.718Z,92.94
2024-02-12T03:19:13.209Z,92.92
2024-02-12T03:19:57.716Z,92.80
2024-02-12T03:20:44.922Z,92.94
2024-02-12T03:21:35.539Z,92.93
2024-02-12T03:22:15.490Z,93.06
2024-02-12T03:22:57.960Z,93.33
2024-02-12T03:23:33.904Z,92.95
2024-02-12T03:24:15.101Z,92.73
2024-02-12T03:25:19.814Z,92.90
2024-02-12T03:26:07.097Z,92.86
2024-02-12T03:26:58.010Z,93.13
2024-02-12T03:27:36.436Z,93.17
2024-02-12T03:28:29.629Z,93.21
2024-02-12T03:29:37.700Z,93.17
2024-02-12T03:30:28.694Z,93.15
2024-02-12T03:32:14.835Z,93.02
2024-02-12T03:33:04.440Z,93.07
2024-02-12T03:33:56.609Z,93.00
2024-02-12T03:34:31.091Z,93.13
2024-02-12T03:35:16.230Z,93.41
2024-02-12T03:36:01.099Z,93.18
2024-02-12T03:37:03.236Z,92.97
2024-02-12T03:37:51.422Z,93.34
2024-02-12T03:38:56.887Z,93.13
2024-02-12T03:39:38.149Z,93.14
2024-02-12T03:40:29.948Z,93.14
2024-02-12T03:41:08.824Z,93.28
2024-02-12T03:41:44.095Z,93.02
2024-02-12T03:42:31.067Z,93.16
2024-02-12T03:43:29.291Z,93.39
2024-02-12T03:44:11.314Z,92.97
2024-02-12T03:44:55.334Z,92.93
2024-02-12T03:45:57.547Z,92.91
2024-02-12T03:46:53.677Z,92.91
2024-02-12T03:47:47.970Z,93.07
2024-02-12T03:48:44.170Z,92.82
2024-02-12T03:49:33.761Z,93.02
2024-02-12T03:50:42.766Z,93.16
2024-02-12T03:51:44.201Z,92.91
2024-02-12T03:52:57.949Z,92.75
2024-02-12T03:53:48.872Z,92.77
2024-02-12T03:54:48.280Z,93.06
2024-02-12T03:56:01.441Z,93.25
2024-02-12T03:56:51.500Z,93.24
2024-02-12T03:58:03.070Z,92.75
2024-02-12T03:59:02.384Z,93.01
2024-02-12T04:00:01.381Z,93.29
2024-02-12T04:01:56.017Z,93.19
2024-02-12T04:02:51.713Z,93.14
2024-02-12T04:03:34.939Z,93.41
2024-02-12T04:04:28.294Z,92.99
2024-02-12T04:05:16.203Z,93.24
2024-02-12T04:06:17.004Z,93.46
2024-02-12T04:06:56.210Z,93.38
2024-02-12T04:07:39.647Z,93.42
2024-02-12T04:08:18.259Z,93.50
2024-02-12T04:08:58.516Z,93.43
2024-02-12T04:09:48.964Z,93.60
2024-02-12T04:10:36.231Z,93.47
2024-02-12T04:11:20.756Z,93.82
2024-02-12T04:12:28.088Z,93.50
2024-02-12T04:13:16.829Z,93.54
2024-02-12T04:14:30.934Z,93.68
2024-02-12T04:16:10.790Z,93.73
2024-02-12T04:18:05.214Z,93.81
2024-02-12T04:18:53.199Z,93.55
2024-02-12T04:19:29.056Z,93.57
2024-02-12T04:20:22.269Z,93.58
2024-02-12T04:20:55.903Z,93.85
2024-02-12T04:21:45.198Z,93.77
2024-02-12T04:22:31.055Z,93.62
2024-02-12T04:23:18.654Z,93.53
2024-02-12T04:23:56.790Z,93.76
2024-02-12T04:24:40.757Z,93.58
2024-02-12T04:25:27.782Z,93.79
2024-02-12T04:26:08.209Z,93.65
2024-02-12T04:26:44.391Z,93.99
2024-02-12T04:27:45.675Z,94.17
2024-02-12T04:28:26.692Z,93.69
2024-02-12T04:29:15.151Z,93.76
2024-02-12T04:30:01.806Z,94.11
2024-02-12T04:30:46.326Z,93.88
2024-02-12T04:31:31.131Z,94.09
2024-02-12T04:32:23.976Z,94.10
2024-02-12T04:33:05.434Z,94.35
2024-02-12T04:33:49.776Z,94.40
2024-02-12T04:34:43.549Z,94.53
2024-02-12T04:35:24.459Z,94.35
2024-02-12T04:36:07.874Z,94.40
2024-02-12T04:36:59.364Z,94.35
2024-02-12T04:37:54.968Z,93.94
2024-02-12T04:38:56.618Z,93.95
2024-02-12T04:39:43.986Z,93.96
2024-02-12T04:40:22.320Z,93.93
2024-02-12T04:41:21.208Z,94.16
2024-02-12T04:42:01.062Z,94.19
2024-02-12T04:42:39.010Z,93.90
2024-02-12T04:43:26.817Z,94.21
2024-02-12T04:44:16.882Z,94.07
2024-02-12T04:45:06.718Z,93.98
2024-02-12T04:45:41.942Z,94.10
2024-02-12T04:46:17.515Z,94.04
2024-02-12T04:47:07.252Z,94.17
2024-02-12T04:49:02.412Z,94.57
2024-02-12T04:49:46.315Z,94.41
2024-02-12T04:50:34.184Z,94.67
2024-02-12T04:51:06.829Z,94.44
2024-02-12T04:51:57.428Z,94.27
2024-02-12T04:53:02.065Z,94.37
2024-02-12T04:54:24.993Z,94.48
2024-02-12T04:55:14.831Z,94.53
2024-02-12T04:55:55.960Z,94.87
2024-02-12T04:56:31.705Z,94.54
2024-02-12T04:57:22.030Z,94.86
2024-02-12T04:58:02.641Z,94.50
2024-02-12T04:58:37.360Z,94.49
2024-02-12T04:59:33.569Z,94.87
2024-02-12T05:00:25.332Z,94.97
2024-02-12T05:01:10.286Z,94.99
2024-02-12T05:02:02.029Z,95.07
2024-02-12T05:02:47.024Z,94.57
2024-02-12T05:03:38.007Z,94.80
2024-02-12T05:04:21.726Z,94.64
2024-02-12T05:05:06.831Z,94.78
2024-02-12T05:05:53.387Z,95.07
2024-02-12T05:06:40.037Z,94.70
2024-02-12T05:07:27.763Z,95.00
2024-02-12T05:08:10.168Z,94.68
2024-02-12T05:08:48.959Z,95.04
2024-02-12T05:09:42.238Z,94.58
2024-02-12T05:10:23.173Z,94.99
2024-02-12T05:11:07.054Z,94.57
2024-02-12T05:11:48.039Z,94.91
2024-02-12T05:12:35.609Z,95.04
2024-02-12T05:13:40.117Z,94.69
2024-02-12T05:14:33.207Z,94.81
2024-02-12T05:15:20.912Z,94.79
2024-02-12T05:16:17.906Z,95.04
2024-02-12T05:16:54.815Z,94.92
2024-02-12T05:17:46.288Z,94.86
2024-02-12T05:18:50.654Z,94.82
2024-02-12T05:20:51.645Z,94.89
2024-02-12T05:21:51.275Z,94.88
2024-02-12T05:24:43.506Z,94.95
2024-02-12T05:25:21.328Z,94.76
2024-02-12T05:26:06.225Z,94.71
2024-02-12T05:27:11.938Z,94.47
2024-02-12T05:27:58.572Z,94.48
2024-02-12T05:29:01.249Z,94.88
2024-02-12T05:29:57.766Z,94.87
2024-02-12T05:30:50.560Z,94.75
2024-02-12T05:31:44.274Z,94.80
2024-02-12T05:32:40.917Z,94.79
2024-02-12T05:33:19.139Z,94.94
2024-02-12T05:34:08.487Z,95.10
2024-02-12T05:34:57.016Z,94.79
2024-02-12T05:35:44.888Z,95.02
2024-02-12T05:36:41.090Z,94.74
2024-02-12T05:37:33.887Z,94.87
2024-02-12T05:38:18.224Z,94.54
2024-02-12T05:38:51.836Z,95.02
2024-02-12T05:39:29.637Z,94.85
2024-02-12T05:40:11.011Z,94.94
2024-02-12T05:41:01.099Z,94.84
2024-02-12T05:41:42.006Z,94.28
2024-02-12T05:42:34.724Z,94.74
2024-02-12T05:43:10.164Z,94.29
2024-02-12T05:44:15.062Z,94.45
2024-02-12T05:45:08.277Z,94.42
2024-02-12T05:46:07.746Z,94.00
2024-02-12T05:46:55.107Z,94.02
2024-02-12T05:47:57.256Z,94.04
2024-02-12T05:48:40.766Z,94.03
2024-02-12T05:49:36.009Z,94.39
2024-02-12T05:50:23.631Z,93.95
2024-02-12T05:51:24.656Z,94.06
2024-02-12T05:52:22.847Z,94.14
2024-02-12T05:53:24.801Z,94.05
2024-02-12T05:54:05.904Z,93.83
2024-02-12T05:54:46.574Z,94.17
2024-02-12T05:55:28.058Z,93.79
2024-02-12T05:56:21.563Z,93.80
2024-02-12T05:57:31.927Z,93.62
2024-02-12T05:58:48.932Z,93.67
2024-02-12T05:59:41.754Z,93.68
2024-02-12T06:00:28.079Z,93.76
2024-02-12T06:01:03.178Z,93.52
2024-02-12T06:01:53.940Z,93.65
2024-02-12T06:02:40.648Z,93.65
2024-02-12T06:03:31.008Z,93.84
2024-02-12T06:04:30.375Z,93.29
2024-02-12T06:05:23.135Z,93.85
2024-02-12T06:06:16.989Z,93.47
2024-02-12T06:07:19.610Z,93.84
2024-02-12T06:08:06.924Z,94.17
2024-02-12T06:08:51.495Z,93.88
2024-02-12T06:09:50.212Z,93.76
2024-02-12T06:10:48.245Z,93.52
2024-02-12T06:11:35.954Z,93.20
2024-02-12T06:12:23.082Z,93.21
2024-02-12T06:13:07.634Z,93.21
2024-02-12T06:14:15.907Z,92.91
2024-02-12T06:14:56.568Z,93.15
2024-02-12T06:15:55.508Z,93.10
2024-02-12T06:16:30.734Z,93.14
2024-02-12T06:17:12.340Z,93.41
2024-02-12T06:18:05.221Z,93.19
2024-02-12T06:19:11.169Z,93.17
2024-02-12T06:20:16.243Z,92.79
2024-02-12T06:20:57.365Z,92.91
2024-02-12T06:21:53.956Z,92.96
2024-02-12T06:22:50.718Z,92.68
2024-02-12T06:23:41.447Z,92.75
2024-02-12T06:25:52.768Z,92.43
2024-02-12T06:26:44.314Z,92.56
2024-02-12T06:27:27.897Z,92.68
2024-02-12T06:28:19.910Z,92.59
2024-02-12T06:29:01.220Z,92.37
2024-02-12T06:29:51.103Z,92.31
2024-02-12T06:30:34.787Z,92.52
2024-02-12T06:31:39.164Z,92.35
2024-02-12T06:32:23.562Z,92.15
2024-02-12T06:34:15.237Z,92.16
2024-02-12T06:35:22.180Z,92.39
2024-02-12T06:35:58.133Z,92.27
2024-02-12T06:36:53.373Z,92.34
2024-02-12T06:38:16.700Z,91.74
2024-02-12T06:39:03.899Z,92.07
2024-02-12T06:39:42.447Z,91.93
2024-02-12T06:40:37.105Z,92.04
2024-02-12T06:41:42.420Z,91.51
2024-02-12T06:42:18.069Z,91.32
2024-02-12T06:43:18.914Z,91.73
2024-02-12T06:44:21.207Z,91.16
2024-02-12T06:45:16.099Z,91.48
2024-02-12T06:46:06.265Z,91.50
2024-02-12T06:46:59.310Z,91.24
2024-02-12T06:47:48.708Z,90.88
2024-02-12T06:48:32.973Z,90.99
2024-02-12T06:50:48.553Z,91.27
2024-02-12T06:51:32.322Z,91.08
2024-02-12T06:52:43.075Z,91.14
2024-02-12T06:53:22.978Z,91.02
2024-02-12T06:54:09.671Z,91.20
2024-02-12T06:54:50.776Z,90.79
2024-02-12T06:57:04.527Z,90.95
2024-02-12T06:58:37.599Z,91.01
2024-02-12T07:00:40.355Z,90.89
2024-02-12T07:02:22.163Z,90.88
2024-02-12T07:03:09.680Z,90.66
2024-02-12T07:04:21.682Z,90.83
2024-02-12T07:05:21.553Z,90.73
2024-02-12T07:05:56.734Z,90.55
2024-02-12T07:06:35.250Z,90.48
2024-02-12T07:07:16.166Z,90.33
2024-02-12T07:08:00.379Z,90.40
2024-02-12T07:08:41.898Z,90.13
2024-02-12T07:09:46.027Z,90.63
2024-02-12T07:10:29.896Z,90.64
2024-02-12T07:11:58.877Z,90.46
2024-02-12T07:12:34.415Z,90.84
2024-02-12T07:13:19.280Z,90.61
2024-02-12T07:14:06.284Z,90.63
2024-02-12T07:15:02.090Z,90.32
2024-02-12T07:15:49.225Z,90.85
2024-02-12T07:16:38.516Z,90.76
2024-02-12T07:17:28.466Z,90.17
2024-02-12T07:18:18.976Z,90.37
2024-02-12T07:19:17.506Z,90.21
2024-02-12T07:20:19.960Z,90.45
2024-02-12T07:21:00.673Z,90.51
2024-02-12T07:22:14.198Z,90.38
2024-02-12T07:22:55.126Z,90.54
2024-02-12T07:25:01.907Z,89.99
2024-02-12T07:25:48.764Z,90.05
2024-02-12T07:27:52.011Z,89.96
2024-02-12T07:28:38.827Z,90.05
2024-02-12T07:30:49.751Z,90.13
2024-02-12T07:31:37.773Z,90.05
2024-02-12T07:32:19.028Z,90.11
2024-02-12T07:33:09.652Z,90.19
2024-02-12T07:34:04.619Z,90.20
2024-02-12T07:34:59.951Z,90.17
2024-02-12T07:35:56.890Z,89.98
2024-02-12T07:37:17.515Z,89.96
2024-02-12T07:38:05.794Z,89.90
2024-02-12T07:38:55.754Z,89.73
2024-02-12T07:40:55.349Z,89.84
2024-02-12T07:41:48.802Z,89.50
2024-02-12T07:44:35.044Z,89.62
2024-02-12T07:45:24.864Z,89.29
2024-02-12T07:46:13.864Z,89.71
2024-02-12T07:47:11.164Z,89.70
2024-02-12T07:48:12.694Z,89.65
2024-02-12T07:49:09.463Z,89.70
2024-02-12T07:50:12.114Z,89.79
2024-02-12T07:50:56.644Z,89.66
2024-02-12T07:51:45.992Z,89.78
2024-02-12T07:52:39.686Z,89.79
2024-02-12T07:53:14.733Z,89.76
2024-02-12T07:54:17.007Z,89.46
2024-02-12T07:54:54.666Z,89.34
2024-02-12T07:57:20.590Z,89.77
2024-02-12T07:59:12.132Z,89.33
2024-02-12T07:59:50.375Z,89.71
2024-02-12T08:01:15.171Z,89.52
2024-02-12T08:02:23.160Z,89.46
2024-02-12T08:03:01.819Z,89.58
2024-02-12T08:03:45.754Z,89.47
2024-02-12T08:04:43.656Z,89.09
2024-02-12T08:05:38.762Z,89.65
2024-02-12T08:06:11.250Z,89.64
2024-02-12T08:06:58.581Z,89.64
2024-02-12T08:07:41.874Z,89.64
2024-02-12T08:08:37.581Z,89.51
2024-02-12T08:09:22.085Z,89.30
2024-02-12T08:10:09.209Z,89.48
2024-02-12T08:11:11.359Z,89.33
2024-02-12T08:12:03.325Z,89.40
2024-02-12T08:13:03.072Z,89.48
2024-02-12T08:14:02.287Z,89.62
2024-02-12T08:15:04.650Z,89.28
2024-02-12T08:15:43.506Z,89.62
2024-02-12T08:16:18.789Z,89.40
2024-02-12T08:16:57.207Z,89.46
2024-02-12T08:18:02.241Z,89.02
2024-02-12T08:18:43.425Z,88.97
2024-02-12T08:19:24.994Z,89.28
2024-02-12T08:20:24.802Z,88.95
2024-02-12T08:21:21.467Z,89.11
2024-02-12T08:23:27.040Z,88.84
2024-02-12T08:24:25.483Z,88.75
2024-02-12T08:25:29.004Z,88.83
2024-02-12T08:26:16.117Z,88.97
2024-02-12T08:26:48.530Z,88.61
2024-02-12T08:27:29.187Z,88.62
2024-02-12T08:28:19.412Z,88.80
2024-02-12T08:28:54.733Z,88.74
2024-02-12T08:30:47.501Z,88.66
2024-02-12T08:31:36.777Z,88.70
2024-02-12T08:32:20.956Z,88.41
2024-02-12T08:33:28.879Z,88.75
2024-02-12T08:34:23.155Z,88.41
2024-02-12T08:35:15.900Z,88.50
2024-02-12T08:35:56.755Z,88.64
2024-02-12T08:36:54.372Z,88.55
2024-02-12T08:37:57.524Z,88.23
2024-02-12T08:38:50.281Z,88.28
2024-02-12T08:39:31.541Z,88.39
2024-02-12T08:40:12.442Z,88.52
2024-02-12T08:41:04.802Z,88.43
2024-02-12T08:41:54.840Z,88.19
2024-02-12T08:42:38.654Z,88.26
2024-02-12T08:43:17.014Z,88.22
2024-02-12T08:44:00.990Z,88.61
2024-02-12T08:45:01.956Z,88.21
2024-02-12T08:46:01.088Z,88.63
2024-02-12T08:47:08.025Z,88.66
2024-02-12T08:47:58.198Z,88.57
2024-02-12T08:48:39.415Z,88.40
2024-02-12T08:49:30.539Z,88.03
2024-02-12T08:50:12.819Z,88.28
2024-02-12T08:51:03.324Z,88.29
2024-02-12T08:51:44.321Z,88.19
2024-02-12T08:52:28.619Z,87.93
2024-02-12T08:53:07.170Z,88.22
2024-02-12T08:53:45.730Z,88.14
2024-02-12T08:54:39.178Z,87.82
2024-02-12T08:55:39.470Z,88.12
2024-02-12T08:56:15.865Z,87.92
2024-02-12T08:56:59.588Z,87.65
2024-02-12T08:57:45.427Z,87.72
2024-02-12T08:58:45.919Z,87.86
2024-02-12T08:59:39.904Z,87.61
2024-02-12T09:00:48.732Z,87.71
2024-02-12T09:01:26.600Z,88.03
2024-02-12T09:03:36.134Z,87.85
2024-02-12T09:04:16.248Z,87.59
2024-02-12T09:05:04.119Z,87.99
2024-02-12T09:06:00.077Z,87.60
2024-02-12T09:07:22.841Z,87.47
2024-02-12T09:08:13.060Z,87.69
2024-02-12T09:08:50.669Z,87.54
2024-02-12T09:10:03.988Z,87.40
2024-02-12T09:11:03.645Z,87.47
2024-02-12T09:12:04.612Z,87.63
2024-02-12T09:12:53.599Z,87.45
2024-02-12T09:13:38.172Z,87.27
2024-02-12T09:14:30.196Z,87.16
2024-02-12T09:15:15.851Z,87.08
2024-02-12T09:15:57.809Z,87.55
2024-02-12T09:16:53.521Z,87.04
2024-02-12T09:17:59.835Z,86.90
2024-02-12T09:20:53.640Z,87.03
2024-02-12T09:21:34.564Z,86.85
2024-02-12T09:22:13.781Z,87.14
2024-02-12T09:22:58.896Z,86.80
2024-02-12T09:23:49.243Z,86.78
2024-02-12T09:24:51.263Z,86.80
2024-02-12T09:25:32.165Z,86.70
2024-02-12T09:26:22.101Z,86.63
2024-02-12T09:27:05.896Z,86.63
2024-02-12T09:27:56.647Z,86.37
2024-02-12T09:28:49.392Z,86.45
2024-02-12T09:30:12.670Z,86.24
2024-02-12T09:31:02.661Z,86.43
2024-02-12T09:31:46.786Z,86.52
2024-02-12T09:32:36.710Z,86.52
2024-02-12T09:33:26.161Z,86.24
2024-02-12T09:34:16.273Z,86.64
2024-02-12T09:34:59.046Z,86.28
2024-02-12T09:35:36.841Z,86.52
2024-02-12T09:36:16.839Z,86.04
2024-02-12T09:37:04.764Z,85.89
2024-02-12T09:37:47.494Z,86.30
2024-02-12T09:39:10.612Z,85.87
2024-02-12T09:40:19.258Z,85.80
2024-02-12T09:41:12.264Z,85.75
2024-02-12T09:43:04.214Z,85.88
2024-02-12T09:44:19.205Z,85.86
2024-02-12T09:45:20.312Z,85.74
2024-02-12T09:46:28.826Z,85.69
2024-02-12T09:47:37.876Z,85.43
2024-02-12T09:48:29.551Z,85.00
2024-02-12T09:49:01.864Z,85.45
2024-02-12T09:51:21.359Z,84.81
2024-02-12T09:52:31.087Z,85.01
2024-02-12T09:54:24.978Z,85.14
2024-02-12T09:55:22.863Z,84.52
2024-02-12T09:56:11.697Z,84.59
2024-02-12T09:57:01.958Z,85.14
2024-02-12T09:58:10.207Z,84.57
2024-02-12T09:59:15.076Z,84.93
2024-02-12T09:59:48.316Z,85.21
2024-02-12T10:00:39.933Z,84.62
2024-02-12T10:01:44.746Z,85.00
2024-02-12T10:02:26.009Z,85.13
2024-02-12T10:03:22.125Z,84.63
2024-02-12T10:04:03.894Z,85.03
2024-02-12T10:05:13.114Z,84.34
2024-02-12T10:06:00.077Z,84.33
2024-02-12T10:07:51.526Z,84.42
2024-02-12T10:09:01.792Z,84.76
2024-02-12T10:09:42.961Z,85.04
2024-02-12T10:10:16.445Z,84.78
2024-02-12T10:12:16.031Z,84.45
2024-02-12T10:13:08.838Z,85.00
2024-02-12T10:14:09.278Z,84.73
2024-02-12T10:14:53.672Z,85.27
2024-02-12T10:15:55.874Z,84.70
2024-02-12T10:16:45.952Z,84.75
2024-02-12T10:17:33.004Z,84.73
2024-02-12T10:18:48.205Z,84.57
2024-02-12T10:19:38.029Z,84.96
2024-02-12T10:20:15.096Z,85.06
2024-02-12T10:21:24.320Z,85.32
2024-02-12T10:22:04.751Z,84.71
2024-02-12T10:22:46.577Z,85.17
2024-02-12T10:23:43.926Z,85.40
2024-02-12T10:24:28.712Z,85.38
2024-02-12T10:25:20.392Z,85.20
2024-02-12T10:26:10.007Z,85.03
2024-02-12T10:27:13.344Z,84.86
2024-02-12T10:27:51.135Z,85.23
2024-02-12T10:29:02.962Z,85.55
2024-02-12T10:29:44.700Z,85.39
2024-02-12T10:30:35.102Z,85.61
2024-02-12T10:32:41.550Z,85.61
2024-02-12T10:33:59.111Z,85.61
2024-02-12T10:35:13.004Z,85.92
2024-02-12T10:35:55.218Z,85.66
2024-02-12T10:37:59.947Z,85.61
2024-02-12T10:38:47.664Z,85.90
2024-02-12T10:39:46.885Z,85.90
2024-02-12T10:40:46.102Z,85.49
2024-02-12T10:41:53.527Z,85.31
2024-02-12T10:44:10.082Z,85.28
2024-02-12T10:45:03.689Z,85.30
2024-02-12T10:45:49.257Z,86.04
2024-02-12T10:46:36.446Z,85.93
2024-02-12T10:47:22.985Z,85.41
2024-02-12T10:48:51.349Z,85.35
2024-02-12T10:49:33.489Z,85.74
2024-02-12T10:50:19.809Z,85.86
2024-02-12T10:51:33.958Z,86.08
2024-02-12T10:52:25.717Z,85.67
2024-02-12T10:52:58.853Z,86.05
2024-02-12T10:53:50.748Z,86.25
2024-02-12T10:54:38.479Z,86.14
2024-02-12T10:55:20.208Z,86.46
2024-02-12T10:56:47.811Z,86.31
2024-02-12T10:57:46.927Z,86.31
2024-02-12T10:58:31.708Z,86.25
2024-02-12T10:59:13.035Z,86.14
2024-02-12T11:00:02.739Z,86.19
2024-02-12T11:01:06.906Z,86.26
2024-02-12T11:01:53.353Z,86.08
2024-02-12T11:02:43.396Z,86.36
2024-02-12T11:03:52.654Z,86.38
2024-02-12T11:04:37.186Z,86.60
2024-02-12T11:05:39.130Z,86.45
2024-02-12T11:06:18.962Z,86.56
2024-02-12T11:08:35.116Z,86.30
2024-02-12T11:09:37.112Z,86.41
2024-02-12T11:10:34.718Z,86.51
2024-02-12T11:11:32.516Z,86.64
2024-02-12T11:12:34.817Z,86.69
2024-02-12T11:13:46.206Z,86.75
2024-02-12T11:14:57.050Z,86.43
2024-02-12T11:16:03.574Z,86.54
2024-02-12T11:16:51.229Z,87.07
2024-02-12T11:17:33.645Z,87.07
2024-02-12T11:18:26.799Z,86.95
2024-02-12T11:19:12.036Z,86.79
2024-02-12T11:20:00.312Z,86.77
2024-02-12T11:20:59.901Z,86.69
2024-02-12T11:21:45.560Z,86.84
2024-02-12T11:23:35.823Z,86.60
2024-02-12T11:24:35.117Z,86.30
2024-02-12T11:25:23.478Z,86.13
2024-02-12T11:26:26.190Z,85.82
2024-02-12T11:27:22.217Z,86.09
2024-02-12T11:28:12.029Z,86.23
2024-02-12T11:29:11.928Z,86.45
2024-02-12T11:29:59.374Z,86.17
2024-02-12T11:30:48.307Z,86.83
2024-02-12T11:31:49.174Z,86.53
2024-02-12T11:32:36.349Z,86.65
2024-02-12T11:33:32.698Z,86.46
2024-02-12T11:35:36.922Z,86.78
2024-02-12T11:36:32.045Z,86.76
2024-02-12T11:38:21.198Z,86.68
2024-02-12T11:38:56.257Z,86.43
2024-02-12T11:39:34.539Z,86.53
2024-02-12T11:40:26.962Z,86.72
2024-02-12T11:41:03.036Z,86.93
2024-02-12T11:41:42.296Z,86.96